createdAt,value
2019-04-30T00:02:29.343Z,13.55
2019-04-30T00:04:56.542Z,13.54
2019-04-30T00:07:26.041Z,13.60
2019-04-30T00:09:57.622Z,13.68
2019-04-30T00:12:30.786Z,13.73
2019-04-30T00:14:58.550Z,13.46
2019-04-30T00:17:29.686Z,13.60
2019-04-30T00:20:00.087Z,13.63
2019-04-30T00:22:33.877Z,13.49
2019-04-30T00:25:01.201Z,13.37
2019-04-30T00:27:30.766Z,13.42
2019-04-30T00:30:04.846Z,13.38
2019-04-30T00:32:32.012Z,13.42
2019-04-30T00:35:01.604Z,13.53
2019-04-30T00:37:31.094Z,13.57
2019-04-30T00:40:00.678Z,13.47
2019-04-30T00:42:30.168Z,13.32
2019-04-30T00:45:04.114Z,13.54
2019-04-30T00:47:31.013Z,13.46
2019-04-30T00:50:00.597Z,13.30
2019-04-30T00:52:33.973Z,13.32
2019-04-30T00:55:07.539Z,13.36
2019-04-30T00:57:37.297Z,13.36
2019-04-30T01:00:09.889Z,13.33
2019-04-30T01:02:47.135Z,13.36
2019-04-30T01:05:21.806Z,13.34
2019-04-30T01:07:51.942Z,13.33
2019-04-30T01:10:24.673Z,13.12
2019-04-30T01:12:54.070Z,13.06
2019-04-30T01:15:23.558Z,12.99
2019-04-30T01:17:53.951Z,13.33
2019-04-30T01:20:30.968Z,13.25
2019-04-30T01:22:56.047Z,13.17
2019-04-30T01:25:26.359Z,12.87
2019-04-30T01:27:55.925Z,12.86
2019-04-30T01:30:25.887Z,12.87
2019-04-30T01:32:56.923Z,12.95
2019-04-30T01:35:31.280Z,12.94
2019-04-30T01:37:59.583Z,13.06
2019-04-30T01:40:29.256Z,13.01
2019-04-30T01:42:59.378Z,12.84
2019-04-30T01:45:31.658Z,12.74
2019-04-30T01:48:08.435Z,12.66
2019-04-30T01:50:33.718Z,12.60
2019-04-30T01:53:04.835Z,12.42
2019-04-30T01:55:51.560Z,12.67
2019-04-30T01:58:22.787Z,12.39
2019-04-30T02:00:53.916Z,12.29
2019-04-30T02:03:23.397Z,12.69
2019-04-30T02:05:52.959Z,12.73
2019-04-30T02:08:22.534Z,12.64
2019-04-30T02:10:52.104Z,12.56
2019-04-30T02:13:21.513Z,12.61
2019-04-30T02:15:51.009Z,12.74
2019-04-30T02:18:20.503Z,12.61
2019-04-30T02:20:50.318Z,12.43
2019-04-30T02:23:19.801Z,12.44
2019-04-30T02:25:49.391Z,12.62
2019-04-30T02:28:19.122Z,12.54
2019-04-30T02:30:50.360Z,12.55
2019-04-30T02:33:20.796Z,12.64
2019-04-30T02:35:54.961Z,12.49
2019-04-30T02:38:26.091Z,12.56
2019-04-30T02:40:56.495Z,12.54
2019-04-30T02:43:29.962Z,12.48
2019-04-30T02:46:00.161Z,12.47
2019-04-30T02:48:32.412Z,12.43
2019-04-30T02:51:04.068Z,12.45
2019-04-30T02:54:03.606Z,12.48
2019-04-30T02:56:33.224Z,12.74
2019-04-30T02:59:03.846Z,12.54
2019-04-30T03:01:33.806Z,12.39
2019-04-30T03:04:03.372Z,12.75
2019-04-30T03:06:32.943Z,12.66
2019-04-30T03:09:02.454Z,12.51
2019-04-30T03:11:33.248Z,12.45
2019-04-30T03:14:02.818Z,12.30
2019-04-30T03:16:33.983Z,12.16
2019-04-30T03:19:14.205Z,12.12
2019-04-30T03:21:50.280Z,12.21
2019-04-30T03:24:20.258Z,12.32
2019-04-30T03:26:50.281Z,12.05
2019-04-30T03:29:24.025Z,11.85
2019-04-30T03:31:52.717Z,12.04
2019-04-30T03:34:25.802Z,12.19
2019-04-30T03:36:53.551Z,12.02
2019-04-30T03:39:23.280Z,11.74
2019-04-30T03:41:52.703Z,11.61
2019-04-30T03:44:25.713Z,11.96
2019-04-30T03:46:53.239Z,11.84
2019-04-30T03:49:23.030Z,11.73
2019-04-30T03:51:52.520Z,11.80
2019-04-30T03:54:21.956Z,12.08
2019-04-30T03:56:53.181Z,11.87
2019-04-30T03:59:24.421Z,11.76
2019-04-30T04:01:55.500Z,12.03
2019-04-30T04:04:35.410Z,12.20
2019-04-30T04:07:22.481Z,11.91
2019-04-30T04:09:53.674Z,11.92
2019-04-30T04:12:29.962Z,12.09
2019-04-30T04:15:03.231Z,12.06
2019-04-30T04:17:31.559Z,12.02
2019-04-30T04:20:00.874Z,12.17
2019-04-30T04:22:30.956Z,12.30
2019-04-30T04:25:00.581Z,12.25
2019-04-30T04:27:30.547Z,12.20
2019-04-30T04:30:01.182Z,12.28
2019-04-30T04:32:32.197Z,12.31
2019-04-30T04:35:01.685Z,12.40
2019-04-30T04:37:31.359Z,12.49
2019-04-30T04:40:01.038Z,12.52
2019-04-30T04:42:33.038Z,12.82
2019-04-30T04:45:01.952Z,12.66
2019-04-30T04:47:31.518Z,12.68
2019-04-30T04:50:01.163Z,12.66
2019-04-30T04:52:40.717Z,12.84
2019-04-30T04:55:10.024Z,12.79
2019-04-30T04:57:40.294Z,12.85
2019-04-30T05:00:10.902Z,12.87
2019-04-30T05:02:49.600Z,12.90
2019-04-30T05:05:23.986Z,12.98
2019-04-30T05:08:02.670Z,13.07
2019-04-30T05:10:33.440Z,13.26
2019-04-30T05:13:03.093Z,13.52
2019-04-30T05:15:32.676Z,13.60
2019-04-30T05:18:02.237Z,13.63
2019-04-30T05:20:32.009Z,13.80
2019-04-30T05:23:01.658Z,13.96
2019-04-30T05:25:31.323Z,14.11
2019-04-30T05:28:03.909Z,14.26
2019-04-30T05:30:33.882Z,14.41
2019-04-30T05:33:05.163Z,14.09
2019-04-30T05:35:34.792Z,14.38
2019-04-30T05:38:04.517Z,14.29
2019-04-30T05:40:34.229Z,14.61
2019-04-30T05:43:03.929Z,14.84
2019-04-30T05:45:36.508Z,15.00
2019-04-30T05:48:08.857Z,15.06
2019-04-30T05:50:39.133Z,15.08
2019-04-30T05:53:09.155Z,15.23
2019-04-30T05:55:39.539Z,15.14
2019-04-30T05:58:09.557Z,15.19
2019-04-30T06:00:40.139Z,14.84
2019-04-30T06:03:09.894Z,15.02
2019-04-30T06:05:39.540Z,15.06
2019-04-30T06:08:11.034Z,15.04
2019-04-30T06:10:55.920Z,15.05
2019-04-30T06:13:38.399Z,15.10
2019-04-30T06:16:12.845Z,15.02
2019-04-30T06:18:42.424Z,14.95
2019-04-30T06:21:12.155Z,15.38
2019-04-30T06:23:41.714Z,15.67
2019-04-30T06:26:13.161Z,16.01
2019-04-30T06:28:43.562Z,16.02
2019-04-30T06:31:13.140Z,16.19
2019-04-30T06:33:42.778Z,16.19
2019-04-30T06:36:18.906Z,16.32
2019-04-30T06:38:48.932Z,16.51
2019-04-30T06:41:19.813Z,16.76
2019-04-30T06:43:49.909Z,17.38
2019-04-30T06:46:19.564Z,17.67
2019-04-30T06:48:51.152Z,17.72
2019-04-30T06:51:20.799Z,17.49
2019-04-30T06:53:51.380Z,17.29
2019-04-30T06:56:24.521Z,17.33
2019-04-30T06:58:54.041Z,17.39
2019-04-30T07:01:26.581Z,17.35
2019-04-30T07:03:58.882Z,17.46
2019-04-30T07:06:32.484Z,17.46
2019-04-30T07:09:17.021Z,17.19
2019-04-30T07:11:51.316Z,16.86
2019-04-30T07:14:20.940Z,16.95
2019-04-30T07:16:50.492Z,17.18
2019-04-30T07:19:31.972Z,17.58
2019-04-30T07:21:51.315Z,17.66
2019-04-30T07:27:50.474Z,17.99
2019-04-30T07:30:20.661Z,18.19
2019-04-30T07:32:50.298Z,18.34
2019-04-30T07:35:19.897Z,18.47
2019-04-30T07:38:06.176Z,18.40
2019-04-30T07:40:42.410Z,18.18
2019-04-30T07:43:15.017Z,18.17
2019-04-30T07:45:44.588Z,18.17
2019-04-30T07:48:14.239Z,18.28
2019-04-30T07:50:44.405Z,18.11
2019-04-30T07:53:14.001Z,17.96
2019-04-30T07:55:43.660Z,18.21
2019-04-30T07:58:13.208Z,18.27
2019-04-30T08:00:43.159Z,17.95
2019-04-30T08:03:31.047Z,17.92
2019-04-30T08:06:02.825Z,17.71
2019-04-30T08:08:32.374Z,17.22
2019-04-30T08:11:02.037Z,17.51
2019-04-30T08:13:32.791Z,17.74
2019-04-30T08:16:02.881Z,17.78
2019-04-30T08:18:32.471Z,17.79
2019-04-30T08:21:01.961Z,17.79
2019-04-30T08:23:36.763Z,17.99
2019-04-30T08:26:02.926Z,17.72
2019-04-30T08:28:32.571Z,17.52
2019-04-30T08:31:02.268Z,17.27
2019-04-30T08:33:31.890Z,17.25
2019-04-30T08:36:01.544Z,16.98
2019-04-30T08:38:31.131Z,17.04
2019-04-30T08:41:01.003Z,17.10
2019-04-30T08:43:31.470Z,17.10
2019-04-30T08:46:00.967Z,17.41
2019-04-30T08:48:45.400Z,17.69
2019-04-30T08:51:01.872Z,17.57
2019-04-30T08:53:33.802Z,17.53
2019-04-30T08:56:02.724Z,17.70
2019-04-30T08:58:41.260Z,17.65
2019-04-30T09:01:10.859Z,17.70
2019-04-30T09:03:40.513Z,17.58
2019-04-30T09:06:11.814Z,17.51
2019-04-30T09:08:41.518Z,17.19
2019-04-30T09:11:25.223Z,17.06
2019-04-30T09:13:48.900Z,17.13
2019-04-30T09:16:19.446Z,16.86
2019-04-30T09:19:05.917Z,16.69
2019-04-30T09:21:35.572Z,16.50
2019-04-30T09:24:05.200Z,16.33
2019-04-30T09:26:34.796Z,16.16
2019-04-30T09:29:04.328Z,15.91
2019-04-30T09:31:35.665Z,16.22
2019-04-30T09:34:15.263Z,16.24
2019-04-30T09:36:39.027Z,16.39
2019-04-30T09:39:24.656Z,16.75
2019-04-30T09:41:54.232Z,17.33
2019-04-30T09:44:35.519Z,16.85
2019-04-30T09:47:08.821Z,17.29
2019-04-30T09:49:38.825Z,17.58
2019-04-30T09:52:10.122Z,17.69
2019-04-30T09:54:46.152Z,17.68
2019-04-30T09:57:24.489Z,16.62
2019-04-30T09:59:54.091Z,15.64
2019-04-30T10:02:23.727Z,15.82
2019-04-30T10:04:53.568Z,15.36
2019-04-30T10:07:35.426Z,14.93
2019-04-30T10:10:09.433Z,14.87
2019-04-30T10:12:39.216Z,14.62
2019-04-30T10:15:12.093Z,14.17
2019-04-30T10:18:13.889Z,14.61
2019-04-30T10:23:39.181Z,14.28
2019-04-30T10:26:11.013Z,14.18
2019-04-30T10:28:43.400Z,14.08
2019-04-30T10:31:15.212Z,13.87
2019-04-30T10:33:48.551Z,13.56
2019-04-30T10:36:22.163Z,13.67
2019-04-30T10:38:55.953Z,13.89
2019-04-30T10:41:28.818Z,14.17
2019-04-30T10:43:59.218Z,13.91
2019-04-30T10:46:28.795Z,14.21
2019-04-30T10:48:58.476Z,14.30
2019-04-30T10:51:28.849Z,14.33
2019-04-30T10:53:59.192Z,14.48
2019-04-30T10:56:29.231Z,14.84
2019-04-30T10:58:58.942Z,14.87
2019-04-30T11:01:33.296Z,14.84
2019-04-30T11:04:02.959Z,14.90
2019-04-30T11:06:32.715Z,15.00
2019-04-30T11:09:02.432Z,15.10
2019-04-30T11:11:33.282Z,15.41
2019-04-30T11:14:04.615Z,15.60
2019-04-30T11:16:34.342Z,15.44
2019-04-30T11:19:04.472Z,15.45
2019-04-30T11:21:35.733Z,15.27
2019-04-30T11:24:09.118Z,15.29
2019-04-30T11:26:40.353Z,14.90
2019-04-30T11:29:14.347Z,14.79
2019-04-30T11:32:00.017Z,14.90
2019-04-30T11:34:35.166Z,14.90
2019-04-30T11:37:27.456Z,15.04
2019-04-30T11:40:04.276Z,15.10
2019-04-30T11:42:43.668Z,15.42
2019-04-30T11:45:16.572Z,15.75
2019-04-30T11:47:53.343Z,16.13
2019-04-30T11:50:19.678Z,16.48
2019-04-30T11:56:05.794Z,16.60
2019-04-30T11:58:35.404Z,16.55
2019-04-30T12:01:09.000Z,16.24
2019-04-30T12:03:39.438Z,16.18
2019-04-30T12:06:09.538Z,16.63
2019-04-30T12:08:55.865Z,16.66
2019-04-30T12:11:29.815Z,16.88
2019-04-30T12:14:01.153Z,16.92
2019-04-30T12:16:33.607Z,17.29
2019-04-30T12:19:04.765Z,17.36
2019-04-30T12:21:54.917Z,17.43
2019-04-30T12:24:38.780Z,17.66
2019-04-30T12:27:13.646Z,17.87
2019-04-30T12:29:44.961Z,18.08
2019-04-30T12:32:14.597Z,18.12
2019-04-30T12:34:44.245Z,18.25
2019-04-30T12:37:13.993Z,18.26
2019-04-30T12:39:43.570Z,18.22
2019-04-30T12:42:13.218Z,18.21
2019-04-30T12:44:42.921Z,18.16
2019-04-30T12:47:12.705Z,18.25
2019-04-30T12:50:02.948Z,18.31
2019-04-30T12:52:36.953Z,18.17
2019-04-30T12:55:15.599Z,18.31
2019-04-30T12:57:55.529Z,17.94
2019-04-30T13:03:09.205Z,18.37
2019-04-30T13:06:34.520Z,18.40
2019-04-30T13:13:51.071Z,18.63
2019-04-30T13:16:25.399Z,18.40
2019-04-30T13:18:55.011Z,18.59
2019-04-30T13:21:24.504Z,18.67
2019-04-30T13:23:54.333Z,18.61
2019-04-30T13:26:23.961Z,18.55
2019-04-30T13:28:57.705Z,18.47
2019-04-30T13:31:29.470Z,18.46
2019-04-30T13:34:18.605Z,18.45
2019-04-30T13:36:49.342Z,18.53
2019-04-30T13:39:20.612Z,18.53
2019-04-30T13:41:54.948Z,18.51
2019-04-30T13:44:26.148Z,18.58
2019-04-30T13:46:55.817Z,18.71
2019-04-30T13:49:25.801Z,18.86
2019-04-30T13:51:55.438Z,19.01
2019-04-30T13:54:25.004Z,18.89
2019-04-30T13:56:54.613Z,19.05
2019-04-30T13:59:24.127Z,18.94
2019-04-30T14:01:53.882Z,18.78
2019-04-30T14:04:40.330Z,18.79
2019-04-30T14:07:17.532Z,18.97
2019-04-30T14:09:47.021Z,18.94
2019-04-30T14:12:16.588Z,18.91
2019-04-30T14:14:46.066Z,18.83
